sensor_id;sensor_type;location;lat;lon;timestamp;pressure;altitude;pressure_sealevel;temperature;humidity
9784;BME280;4931;44.874;-1.092;2023-02-18T00:00:08;102774.44;;;7.11;100.00
9784;BME280;4931;44.874;-1.092;2023-02-18T00:02:34;102768.56;;;7.07;100.00
9784;BME280;4931;44.874;-1.092;2023-02-18T00:04:59;102773.34;;;6.98;100.00
9784;BME280;4931;44.874;-1.092;2023-02-18T00:07:25;102765.19;;;6.98;100.00
9784;BME280;4931;44.874;-1.092;2023-02-18T00:09:51;102765.78;;;6.87;100.00
9784;BME280;4931;44.874;-1.092;2023-02-18T00:12:16;102763.06;;;6.87;100.00
9784;BME280;4931;44.874;-1.092;2023-02-18T00:14:42;102759.31;;;6.88;100.00
9784;BME280;4931;44.874;-1.092;2023-02-18T00:17:07;102760.31;;;6.80;100.00
9784;BME280;4931;44.874;-1.092;2023-02-18T00:19:32;102761.78;;;6.76;100.00
9784;BME280;4931;44.874;-1.092;2023-02-18T00:21:58;102758.81;;;6.64;100.00
9784;BME280;4931;44.874;-1.092;2023-02-18T00:24:23;102758.75;;;6.58;100.00
9784;BME280;4931;44.874;-1.092;2023-02-18T00:26:51;102768.00;;;6.57;100.00
9784;BME280;4931;44.874;-1.092;2023-02-18T00:29:17;102762.53;;;6.50;100.00
9784;BME280;4931;44.874;-1.092;2023-02-18T00:31:43;102762.91;;;6.40;100.00
9784;BME280;4931;44.874;-1.092;2023-02-18T00:34:09;102762.84;;;6.27;100.00
9784;BME280;4931;44.874;-1.092;2023-02-18T00:36:35;102760.28;;;6.19;100.00
9784;BME280;4931;44.874;-1.092;2023-02-18T00:39:03;102755.63;;;6.12;100.00
9784;BME280;4931;44.874;-1.092;2023-02-18T00:41:30;102752.44;;;6.02;100.00
9784;BME280;4931;44.874;-1.092;2023-02-18T00:43:56;102751.38;;;6.03;100.00
9784;BME280;4931;44.874;-1.092;2023-02-18T00:46:22;102764.34;;;6.01;100.00
9784;BME280;4931;44.874;-1.092;2023-02-18T00:48:48;102749.69;;;6.02;100.00
9784;BME280;4931;44.874;-1.092;2023-02-18T00:51:14;102754.34;;;6.08;100.00
9784;BME280;4931;44.874;-1.092;2023-02-18T00:53:39;102753.53;;;6.14;100.00
9784;BME280;4931;44.874;-1.092;2023-02-18T00:56:06;102750.00;;;6.21;100.00
9784;BME280;4931;44.874;-1.092;2023-02-18T00:58:32;102753.16;;;6.18;100.00
9784;BME280;4931;44.874;-1.092;2023-02-18T01:00:58;102735.28;;;6.08;100.00
9784;BME280;4931;44.874;-1.092;2023-02-18T01:03:24;102747.63;;;6.04;100.00
9784;BME280;4931;44.874;-1.092;2023-02-18T01:05:51;102745.28;;;6.01;100.00
9784;BME280;4931;44.874;-1.092;2023-02-18T01:08:18;102739.97;;;5.93;100.00
9784;BME280;4931;44.874;-1.092;2023-02-18T01:10:45;102747.13;;;5.94;100.00
9784;BME280;4931;44.874;-1.092;2023-02-18T01:13:12;102736.19;;;5.87;100.00
9784;BME280;4931;44.874;-1.092;2023-02-18T01:15:38;102743.53;;;5.93;100.00
9784;BME280;4931;44.874;-1.092;2023-02-18T01:18:04;102741.19;;;5.84;100.00
9784;BME280;4931;44.874;-1.092;2023-02-18T01:20:30;102737.38;;;5.78;100.00
9784;BME280;4931;44.874;-1.092;2023-02-18T01:22:55;102735.69;;;5.77;100.00
9784;BME280;4931;44.874;-1.092;2023-02-18T01:25:21;102734.41;;;5.73;100.00
9784;BME280;4931;44.874;-1.092;2023-02-18T01:27:47;102730.31;;;5.62;100.00
9784;BME280;4931;44.874;-1.092;2023-02-18T01:30:15;102739.31;;;5.56;100.00
9784;BME280;4931;44.874;-1.092;2023-02-18T01:32:41;102739.31;;;5.56;100.00
9784;BME280;4931;44.874;-1.092;2023-02-18T01:35:07;102740.19;;;5.63;100.00
9784;BME280;4931;44.874;-1.092;2023-02-18T01:37:34;102733.72;;;5.64;100.00
9784;BME280;4931;44.874;-1.092;2023-02-18T01:40:00;102728.25;;;5.64;100.00
9784;BME280;4931;44.874;-1.092;2023-02-18T01:42:28;102735.47;;;5.50;100.00
9784;BME280;4931;44.874;-1.092;2023-02-18T01:48:00;102733.31;;;5.39;100.00
9784;BME280;4931;44.874;-1.092;2023-02-18T01:50:29;102736.59;;;5.34;100.00
9784;BME280;4931;44.874;-1.092;2023-02-18T01:52:59;102736.59;;;5.34;100.00
9784;BME280;4931;44.874;-1.092;2023-02-18T01:55:26;102733.63;;;5.29;100.00
9784;BME280;4931;44.874;-1.092;2023-02-18T01:57:52;102740.13;;;5.28;100.00
9784;BME280;4931;44.874;-1.092;2023-02-18T02:00:18;102731.88;;;5.21;100.00
9784;BME280;4931;44.874;-1.092;2023-02-18T02:02:50;102735.25;;;5.23;100.00
9784;BME280;4931;44.874;-1.092;2023-02-18T02:05:18;102727.69;;;5.19;100.00
9784;BME280;4931;44.874;-1.092;2023-02-18T02:07:44;102726.28;;;5.23;100.00
9784;BME280;4931;44.874;-1.092;2023-02-18T02:10:13;102719.78;;;5.24;100.00
9784;BME280;4931;44.874;-1.092;2023-02-18T02:13:22;102718.13;;;5.23;100.00
9784;BME280;4931;44.874;-1.092;2023-02-18T02:29:55;102708.78;;;5.10;100.00
9784;BME280;4931;44.874;-1.092;2023-02-18T02:35:23;102701.53;;;5.18;100.00
9784;BME280;4931;44.874;-1.092;2023-02-18T02:37:59;102711.19;;;5.20;100.00
9784;BME280;4931;44.874;-1.092;2023-02-18T02:43:55;102711.75;;;5.15;100.00
9784;BME280;4931;44.874;-1.092;2023-02-18T02:46:30;102709.63;;;5.11;100.00
9784;BME280;4931;44.874;-1.092;2023-02-18T02:52:22;102700.97;;;5.29;100.00
9784;BME280;4931;44.874;-1.092;2023-02-18T02:54:48;102703.44;;;5.24;100.00
9784;BME280;4931;44.874;-1.092;2023-02-18T02:59:46;102693.31;;;5.11;100.00
9784;BME280;4931;44.874;-1.092;2023-02-18T03:02:32;102692.34;;;4.97;100.00
9784;BME280;4931;44.874;-1.092;2023-02-18T03:07:56;102695.19;;;4.89;100.00
9784;BME280;4931;44.874;-1.092;2023-02-18T03:10:55;102688.84;;;4.81;100.00
9784;BME280;4931;44.874;-1.092;2023-02-18T03:21:48;102688.94;;;4.52;100.00
9784;BME280;4931;44.874;-1.092;2023-02-18T03:26:52;102678.47;;;4.48;100.00
9784;BME280;4931;44.874;-1.092;2023-02-18T03:29:21;102685.59;;;4.49;100.00
9784;BME280;4931;44.874;-1.092;2023-02-18T03:31:51;102681.63;;;4.52;100.00
9784;BME280;4931;44.874;-1.092;2023-02-18T03:34:24;102675.59;;;4.57;100.00
9784;BME280;4931;44.874;-1.092;2023-02-18T03:36:51;102674.19;;;4.61;100.00
9784;BME280;4931;44.874;-1.092;2023-02-18T03:39:20;102669.81;;;4.60;100.00
9784;BME280;4931;44.874;-1.092;2023-02-18T03:41:47;102665.59;;;4.57;100.00
9784;BME280;4931;44.874;-1.092;2023-02-18T03:44:13;102662.88;;;4.57;100.00
9784;BME280;4931;44.874;-1.092;2023-02-18T03:46:42;102663.06;;;4.56;100.00
9784;BME280;4931;44.874;-1.092;2023-02-18T03:49:10;102663.84;;;4.49;100.00
9784;BME280;4931;44.874;-1.092;2023-02-18T03:51:36;102660.84;;;4.44;100.00
9784;BME280;4931;44.874;-1.092;2023-02-18T03:54:01;102661.25;;;4.41;100.00
9784;BME280;4931;44.874;-1.092;2023-02-18T03:56:33;102666.84;;;4.40;100.00
9784;BME280;4931;44.874;-1.092;2023-02-18T03:58:58;102664.78;;;4.42;100.00
9784;BME280;4931;44.874;-1.092;2023-02-18T04:01:24;102662.53;;;4.45;100.00
9784;BME280;4931;44.874;-1.092;2023-02-18T04:03:49;102655.69;;;4.49;100.00
9784;BME280;4931;44.874;-1.092;2023-02-18T04:06:15;102645.84;;;4.48;100.00
9784;BME280;4931;44.874;-1.092;2023-02-18T04:08:41;102660.09;;;4.51;100.00
9784;BME280;4931;44.874;-1.092;2023-02-18T04:11:06;102656.31;;;4.52;100.00
9784;BME280;4931;44.874;-1.092;2023-02-18T04:13:32;102657.53;;;4.49;100.00
9784;BME280;4931;44.874;-1.092;2023-02-18T04:15:57;102657.38;;;4.51;100.00
9784;BME280;4931;44.874;-1.092;2023-02-18T04:18:23;102646.59;;;4.42;100.00
9784;BME280;4931;44.874;-1.092;2023-02-18T04:20:49;102653.72;;;4.43;100.00
9784;BME280;4931;44.874;-1.092;2023-02-18T04:23:14;102663.56;;;4.44;100.00
9784;BME280;4931;44.874;-1.092;2023-02-18T04:25:40;102656.44;;;4.43;100.00
9784;BME280;4931;44.874;-1.092;2023-02-18T04:28:06;102662.91;;;4.42;100.00
9784;BME280;4931;44.874;-1.092;2023-02-18T04:30:32;102664.59;;;4.43;100.00
9784;BME280;4931;44.874;-1.092;2023-02-18T04:32:57;102665.63;;;4.42;100.00
9784;BME280;4931;44.874;-1.092;2023-02-18T04:35:23;102665.00;;;4.40;100.00
9784;BME280;4931;44.874;-1.092;2023-02-18T04:37:48;102663.31;;;4.39;100.00
9784;BME280;4931;44.874;-1.092;2023-02-18T04:40:14;102670.44;;;4.40;100.00
9784;BME280;4931;44.874;-1.092;2023-02-18T04:42:40;102658.34;;;4.28;100.00
9784;BME280;4931;44.874;-1.092;2023-02-18T04:45:06;102665.22;;;4.24;100.00
9784;BME280;4931;44.874;-1.092;2023-02-18T04:47:47;102665.22;;;4.24;100.00
9784;BME280;4931;44.874;-1.092;2023-02-18T04:50:12;102661.38;;;4.18;100.00
9784;BME280;4931;44.874;-1.092;2023-02-18T04:52:38;102672.66;;;4.15;100.00
9784;BME280;4931;44.874;-1.092;2023-02-18T04:55:04;102669.63;;;4.25;100.00
9784;BME280;4931;44.874;-1.092;2023-02-18T04:57:30;102676.75;;;4.26;100.00
9784;BME280;4931;44.874;-1.092;2023-02-18T04:59:56;102681.50;;;4.24;100.00
9784;BME280;4931;44.874;-1.092;2023-02-18T05:02:21;102682.38;;;4.24;100.00
9784;BME280;4931;44.874;-1.092;2023-02-18T05:04:47;102686.59;;;4.27;100.00
9784;BME280;4931;44.874;-1.092;2023-02-18T05:07:12;102681.91;;;4.21;100.00
9784;BME280;4931;44.874;-1.092;2023-02-18T05:09:38;102672.25;;;4.18;100.00
9784;BME280;4931;44.874;-1.092;2023-02-18T05:12:04;102683.94;;;4.19;100.00
9784;BME280;4931;44.874;-1.092;2023-02-18T05:14:30;102679.00;;;4.22;100.00
9784;BME280;4931;44.874;-1.092;2023-02-18T05:16:55;102683.94;;;4.19;100.00
9784;BME280;4931;44.874;-1.092;2023-02-18T05:19:21;102675.16;;;4.17;100.00
9784;BME280;4931;44.874;-1.092;2023-02-18T05:21:47;102681.91;;;4.21;100.00
9784;BME280;4931;44.874;-1.092;2023-02-18T05:24:12;102673.88;;;4.12;100.00
9784;BME280;4931;44.874;-1.092;2023-02-18T05:26:38;102683.31;;;4.17;100.00
9784;BME280;4931;44.874;-1.092;2023-02-18T05:29:04;102687.69;;;4.18;100.00
9784;BME280;4931;44.874;-1.092;2023-02-18T05:31:30;102685.63;;;4.20;100.00
9784;BME280;4931;44.874;-1.092;2023-02-18T05:33:55;102673.00;;;4.12;100.00
9784;BME280;4931;44.874;-1.092;2023-02-18T05:36:21;102683.69;;;4.13;100.00
9784;BME280;4931;44.874;-1.092;2023-02-18T05:38:46;102675.38;;;4.15;100.00
9784;BME280;4931;44.874;-1.092;2023-02-18T05:41:12;102673.88;;;4.12;100.00
9784;BME280;4931;44.874;-1.092;2023-02-18T05:43:37;102677.88;;;4.17;100.00
9784;BME280;4931;44.874;-1.092;2023-02-18T05:46:22;102674.78;;;4.20;100.00
9784;BME280;4931;44.874;-1.092;2023-02-18T05:48:48;102674.84;;;4.26;100.00
9784;BME280;4931;44.874;-1.092;2023-02-18T05:51:14;102676.22;;;4.37;100.00
9784;BME280;4931;44.874;-1.092;2023-02-18T05:53:40;102666.84;;;4.40;100.00
9784;BME280;4931;44.874;-1.092;2023-02-18T05:56:05;102661.25;;;4.41;100.00
9784;BME280;4931;44.874;-1.092;2023-02-18T05:58:31;102664.72;;;4.35;100.00
9784;BME280;4931;44.874;-1.092;2023-02-18T06:00:56;102664.06;;;4.33;100.00
9784;BME280;4931;44.874;-1.092;2023-02-18T06:03:25;102660.91;;;4.29;100.00
9784;BME280;4931;44.874;-1.092;2023-02-18T06:05:51;102659.41;;;4.27;100.00
9784;BME280;4931;44.874;-1.092;2023-02-18T06:08:16;102662.50;;;4.24;100.00
9784;BME280;4931;44.874;-1.092;2023-02-18T06:10:44;102654.72;;;4.21;100.00
9784;BME280;4931;44.874;-1.092;2023-02-18T06:13:10;102654.25;;;4.17;100.00
9784;BME280;4931;44.874;-1.092;2023-02-18T06:15:35;102653.16;;;4.11;100.00
9784;BME280;4931;44.874;-1.092;2023-02-18T06:18:01;102651.09;;;4.13;100.00
9784;BME280;4931;44.874;-1.092;2023-02-18T06:20:29;102661.50;;;4.10;100.00
9784;BME280;4931;44.874;-1.092;2023-02-18T06:22:55;102653.53;;;4.08;100.00
9784;BME280;4931;44.874;-1.092;2023-02-18T06:25:21;102654.94;;;4.04;100.00
9784;BME280;4931;44.874;-1.092;2023-02-18T06:27:46;102654.31;;;4.02;100.00
9784;BME280;4931;44.874;-1.092;2023-02-18T06:30:12;102652.81;;;3.99;100.00
9784;BME280;4931;44.874;-1.092;2023-02-18T06:32:38;102650.16;;;3.91;100.00
9784;BME280;4931;44.874;-1.092;2023-02-18T06:35:04;102645.03;;;3.81;100.00
9784;BME280;4931;44.874;-1.092;2023-02-18T06:37:29;102648.88;;;3.72;100.00
9784;BME280;4931;44.874;-1.092;2023-02-18T06:39:55;102653.66;;;3.70;100.00
9784;BME280;4931;44.874;-1.092;2023-02-18T06:42:20;102659.09;;;3.70;100.00
9784;BME280;4931;44.874;-1.092;2023-02-18T06:44:46;102656.00;;;3.73;100.00
9784;BME280;4931;44.874;-1.092;2023-02-18T06:47:12;102651.88;;;3.77;100.00
9784;BME280;4931;44.874;-1.092;2023-02-18T06:49:37;102658.34;;;3.76;100.00
9784;BME280;4931;44.874;-1.092;2023-02-18T06:52:03;102660.41;;;3.74;100.00
9784;BME280;4931;44.874;-1.092;2023-02-18T06:54:29;102664.50;;;3.70;100.00
9784;BME280;4931;44.874;-1.092;2023-02-18T06:56:55;102665.00;;;3.59;100.00
9784;BME280;4931;44.874;-1.092;2023-02-18T06:59:21;102666.75;;;3.52;100.00
9784;BME280;4931;44.874;-1.092;2023-02-18T07:01:46;102668.44;;;3.53;100.00
9784;BME280;4931;44.874;-1.092;2023-02-18T07:04:12;102666.41;;;3.55;100.00
9784;BME280;4931;44.874;-1.092;2023-02-18T07:06:37;102671.44;;;3.58;100.00
9784;BME280;4931;44.874;-1.092;2023-02-18T07:09:04;102673.13;;;3.59;100.00
9784;BME280;4931;44.874;-1.092;2023-02-18T07:11:29;102676.88;;;3.58;100.00
9784;BME280;4931;44.874;-1.092;2023-02-18T07:13:55;102676.88;;;3.58;100.00
9784;BME280;4931;44.874;-1.092;2023-02-18T07:16:20;102671.06;;;3.61;100.00
9784;BME280;4931;44.874;-1.092;2023-02-18T07:18:49;102678.84;;;3.64;100.00
9784;BME280;4931;44.874;-1.092;2023-02-18T07:21:14;102680.41;;;3.58;100.00
9784;BME280;4931;44.874;-1.092;2023-02-18T07:23:40;102677.25;;;3.55;100.00
9784;BME280;4931;44.874;-1.092;2023-02-18T07:26:08;102684.00;;;3.59;100.00
9784;BME280;4931;44.874;-1.092;2023-02-18T07:28:35;102672.56;;;3.48;100.00
9784;BME280;4931;44.874;-1.092;2023-02-18T07:31:04;102685.47;;;3.46;100.00
9784;BME280;4931;44.874;-1.092;2023-02-18T07:33:30;102690.16;;;3.53;100.00
9784;BME280;4931;44.874;-1.092;2023-02-18T07:35:57;102677.25;;;3.55;100.00
9784;BME280;4931;44.874;-1.092;2023-02-18T07:38:24;102686.41;;;3.54;100.00
9784;BME280;4931;44.874;-1.092;2023-02-18T07:40:51;102685.41;;;3.55;100.00
9784;BME280;4931;44.874;-1.092;2023-02-18T07:43:17;102685.69;;;3.60;100.00
9784;BME280;4931;44.874;-1.092;2023-02-18T07:45:43;102686.50;;;3.60;100.00
9784;BME280;4931;44.874;-1.092;2023-02-18T07:48:09;102688.09;;;3.70;100.00
9784;BME280;4931;44.874;-1.092;2023-02-18T07:50:38;102686.06;;;3.72;100.00
9784;BME280;4931;44.874;-1.092;2023-02-18T07:53:04;102676.31;;;3.77;100.00
9784;BME280;4931;44.874;-1.092;2023-02-18T07:55:30;102686.06;;;3.87;100.00
9784;BME280;4931;44.874;-1.092;2023-02-18T07:58:24;102675.09;;;4.10;100.00
9784;BME280;4931;44.874;-1.092;2023-02-18T08:00:50;102679.53;;;4.32;100.00
9784;BME280;4931;44.874;-1.092;2023-02-18T08:03:19;102675.34;;;4.52;100.00
9784;BME280;4931;44.874;-1.092;2023-02-18T08:05:47;102674.97;;;4.76;100.00
9784;BME280;4931;44.874;-1.092;2023-02-18T08:08:14;102671.47;;;5.04;100.00
9784;BME280;4931;44.874;-1.092;2023-02-18T08:10:40;102670.78;;;5.24;100.00
9784;BME280;4931;44.874;-1.092;2023-02-18T08:13:06;102676.03;;;5.54;100.00
9784;BME280;4931;44.874;-1.092;2023-02-18T08:15:31;102679.09;;;5.72;100.00
9784;BME280;4931;44.874;-1.092;2023-02-18T08:17:57;102681.06;;;5.92;100.00
9784;BME280;4931;44.874;-1.092;2023-02-18T08:20:22;102669.91;;;6.15;100.00
9784;BME280;4931;44.874;-1.092;2023-02-18T08:22:47;102693.25;;;6.38;100.00
9784;BME280;4931;44.874;-1.092;2023-02-18T08:25:13;102684.94;;;6.53;100.00
9784;BME280;4931;44.874;-1.092;2023-02-18T08:27:38;102690.66;;;6.78;100.00
9784;BME280;4931;44.874;-1.092;2023-02-18T08:30:04;102691.09;;;6.95;100.00
9784;BME280;4931;44.874;-1.092;2023-02-18T08:32:30;102693.63;;;7.17;100.00
9784;BME280;4931;44.874;-1.092;2023-02-18T08:34:56;102691.09;;;7.28;100.00
9784;BME280;4931;44.874;-1.092;2023-02-18T08:37:21;102699.69;;;7.45;100.00
9784;BME280;4931;44.874;-1.092;2023-02-18T08:39:48;102704.72;;;7.69;100.00
9784;BME280;4931;44.874;-1.092;2023-02-18T08:42:13;102705.94;;;7.79;100.00
9784;BME280;4931;44.874;-1.092;2023-02-18T08:44:39;102708.84;;;7.98;100.00
9784;BME280;4931;44.874;-1.092;2023-02-18T08:47:04;102708.81;;;8.18;100.00
9784;BME280;4931;44.874;-1.092;2023-02-18T08:49:30;102707.28;;;8.29;100.00
9784;BME280;4931;44.874;-1.092;2023-02-18T08:51:55;102703.19;;;8.52;100.00
9784;BME280;4931;44.874;-1.092;2023-02-18T08:54:21;102702.31;;;8.58;100.00
9784;BME280;4931;44.874;-1.092;2023-02-18T08:56:47;102709.22;;;8.67;100.00
9784;BME280;4931;44.874;-1.092;2023-02-18T08:59:12;102705.06;;;8.90;100.00
9784;BME280;4931;44.874;-1.092;2023-02-18T09:01:37;102704.09;;;9.09;100.00
9784;BME280;4931;44.874;-1.092;2023-02-18T09:04:03;102705.84;;;9.29;100.00
9784;BME280;4931;44.874;-1.092;2023-02-18T09:06:29;102712.63;;;9.45;100.00
9784;BME280;4931;44.874;-1.092;2023-02-18T09:08:54;102718.84;;;9.59;100.00
9784;BME280;4931;44.874;-1.092;2023-02-18T09:11:20;102714.28;;;9.71;100.00
9784;BME280;4931;44.874;-1.092;2023-02-18T09:13:46;102712.34;;;9.78;100.00
9784;BME280;4931;44.874;-1.092;2023-02-18T09:16:16;102716.28;;;10.01;100.00
9784;BME280;4931;44.874;-1.092;2023-02-18T09:18:43;102719.94;;;10.13;100.00
9784;BME280;4931;44.874;-1.092;2023-02-18T09:21:10;102718.59;;;10.41;100.00
9784;BME280;4931;44.874;-1.092;2023-02-18T09:23:36;102723.06;;;10.17;100.00
9784;BME280;4931;44.874;-1.092;2023-02-18T09:26:07;102713.84;;;10.30;100.00
9784;BME280;4931;44.874;-1.092;2023-02-18T09:28:34;102724.25;;;10.58;100.00
9784;BME280;4931;44.874;-1.092;2023-02-18T09:31:08;102722.47;;;10.83;100.00
9784;BME280;4931;44.874;-1.092;2023-02-18T09:33:36;102728.31;;;10.86;100.00
9784;BME280;4931;44.874;-1.092;2023-02-18T09:36:02;102729.84;;;11.12;100.00
9784;BME280;4931;44.874;-1.092;2023-02-18T09:38:27;102726.88;;;11.38;100.00
9784;BME280;4931;44.874;-1.092;2023-02-18T09:40:53;102736.56;;;11.64;100.00
9784;BME280;4931;44.874;-1.092;2023-02-18T09:45:50;102733.56;;;11.89;100.00
9784;BME280;4931;44.874;-1.092;2023-02-18T09:48:17;102743.50;;;12.02;100.00
9784;BME280;4931;44.874;-1.092;2023-02-18T09:50:47;102742.41;;;12.27;100.00
9784;BME280;4931;44.874;-1.092;2023-02-18T09:53:15;102749.22;;;12.65;100.00
9784;BME280;4931;44.874;-1.092;2023-02-18T09:55:42;102748.34;;;12.65;100.00
9784;BME280;4931;44.874;-1.092;2023-02-18T09:58:16;102748.22;;;13.00;100.00
9784;BME280;4931;44.874;-1.092;2023-02-18T10:03:50;102755.34;;;13.30;100.00
9784;BME280;4931;44.874;-1.092;2023-02-18T10:06:29;102770.91;;;13.36;100.00
9784;BME280;4931;44.874;-1.092;2023-02-18T10:08:57;102767.91;;;13.55;100.00
9784;BME280;4931;44.874;-1.092;2023-02-18T10:11:40;102771.50;;;13.72;100.00
9784;BME280;4931;44.874;-1.092;2023-02-18T10:14:13;102774.16;;;13.84;100.00
9784;BME280;4931;44.874;-1.092;2023-02-18T10:16:40;102773.53;;;13.99;100.00
9784;BME280;4931;44.874;-1.092;2023-02-18T10:19:23;102776.66;;;14.25;100.00
9784;BME280;4931;44.874;-1.092;2023-02-18T10:21:51;102777.88;;;14.56;100.00
9784;BME280;4931;44.874;-1.092;2023-02-18T10:24:43;102778.09;;;14.99;100.00
9784;BME280;4931;44.874;-1.092;2023-02-18T10:27:17;102778.34;;;15.25;100.00
9784;BME280;4931;44.874;-1.092;2023-02-18T10:29:43;102780.53;;;15.23;100.00
9784;BME280;4931;44.874;-1.092;2023-02-18T10:32:18;102784.88;;;15.46;100.00
9784;BME280;4931;44.874;-1.092;2023-02-18T10:45:40;102792.38;;;16.26;100.00
9784;BME280;4931;44.874;-1.092;2023-02-18T10:50:53;102798.03;;;16.57;100.00
9784;BME280;4931;44.874;-1.092;2023-02-18T10:53:36;102798.06;;;16.67;100.00
9784;BME280;4931;44.874;-1.092;2023-02-18T10:56:04;102808.72;;;16.96;100.00
9784;BME280;4931;44.874;-1.092;2023-02-18T10:58:33;102804.19;;;16.69;100.00
9784;BME280;4931;44.874;-1.092;2023-02-18T11:01:03;102798.13;;;16.83;100.00
9784;BME280;4931;44.874;-1.092;2023-02-18T11:03:42;102800.91;;;16.83;100.00
9784;BME280;4931;44.874;-1.092;2023-02-18T11:08:44;102802.66;;;17.25;100.00
9784;BME280;4931;44.874;-1.092;2023-02-18T11:11:21;102811.50;;;17.06;100.00
9784;BME280;4931;44.874;-1.092;2023-02-18T11:13:53;102814.56;;;17.10;100.00
9784;BME280;4931;44.874;-1.092;2023-02-18T11:16:21;102815.94;;;17.02;100.00
9784;BME280;4931;44.874;-1.092;2023-02-18T11:18:47;102802.94;;;17.18;100.00
9784;BME280;4931;44.874;-1.092;2023-02-18T11:21:48;102798.53;;;17.43;100.00
9784;BME280;4931;44.874;-1.092;2023-02-18T11:24:15;102814.03;;;17.59;100.00
9784;BME280;4931;44.874;-1.092;2023-02-18T11:26:42;102798.75;;;17.78;100.00
9784;BME280;4931;44.874;-1.092;2023-02-18T11:29:20;102800.97;;;17.91;100.00
9784;BME280;4931;44.874;-1.092;2023-02-18T11:31:49;102802.91;;;17.90;100.00
9784;BME280;4931;44.874;-1.092;2023-02-18T11:34:19;102808.22;;;17.97;100.00
9784;BME280;4931;44.874;-1.092;2023-02-18T11:36:46;102802.09;;;18.00;100.00
9784;BME280;4931;44.874;-1.092;2023-02-18T11:39:24;102799.53;;;18.19;100.00
9784;BME280;4931;44.874;-1.092;2023-02-18T11:42:04;102804.22;;;18.29;100.00
9784;BME280;4931;44.874;-1.092;2023-02-18T11:44:32;102795.81;;;18.50;100.00
9784;BME280;4931;44.874;-1.092;2023-02-18T11:47:04;102794.41;;;18.57;100.00
9784;BME280;4931;44.874;-1.092;2023-02-18T11:49:32;102795.16;;;18.68;100.00
9784;BME280;4931;44.874;-1.092;2023-02-18T11:54:38;102772.22;;;18.97;100.00
9784;BME280;4931;44.874;-1.092;2023-02-18T11:57:08;102774.59;;;18.69;100.00
9784;BME280;4931;44.874;-1.092;2023-02-18T11:59:37;102775.19;;;18.66;100.00
9784;BME280;4931;44.874;-1.092;2023-02-18T12:05:11;102768.41;;;18.83;100.00
9784;BME280;4931;44.874;-1.092;2023-02-18T12:07:44;102756.38;;;19.03;100.00
9784;BME280;4931;44.874;-1.092;2023-02-18T12:10:14;102754.84;;;19.16;100.00
9784;BME280;4931;44.874;-1.092;2023-02-18T12:12:46;102752.25;;;19.30;100.00
9784;BME280;4931;44.874;-1.092;2023-02-18T12:15:16;102746.97;;;19.28;100.00
9784;BME280;4931;44.874;-1.092;2023-02-18T12:23:43;102734.25;;;19.17;100.00
9784;BME280;4931;44.874;-1.092;2023-02-18T12:26:27;102735.06;;;19.52;100.00
9784;BME280;4931;44.874;-1.092;2023-02-18T12:34:26;102724.13;;;19.90;100.00
9784;BME280;4931;44.874;-1.092;2023-02-18T12:54:13;102696.47;;;19.69;100.00
9784;BME280;4931;44.874;-1.092;2023-02-18T13:00:40;102684.84;;;19.92;100.00
9784;BME280;4931;44.874;-1.092;2023-02-18T13:13:03;102679.78;;;20.56;100.00
9784;BME280;4931;44.874;-1.092;2023-02-18T13:18:00;102672.53;;;20.93;100.00
9784;BME280;4931;44.874;-1.092;2023-02-18T13:20:39;102682.50;;;20.61;100.00
9784;BME280;4931;44.874;-1.092;2023-02-18T13:23:20;102665.56;;;20.38;100.00
9784;BME280;4931;44.874;-1.092;2023-02-18T13:25:50;102668.00;;;20.21;100.00
9784;BME280;4931;44.874;-1.092;2023-02-18T13:28:36;102668.63;;;20.56;100.00
9784;BME280;4931;44.874;-1.092;2023-02-18T13:31:24;102659.50;;;20.31;100.00
9784;BME280;4931;44.874;-1.092;2023-02-18T13:39:20;102639.09;;;20.55;100.00
9784;BME280;4931;44.874;-1.092;2023-02-18T13:41:50;102641.38;;;20.53;100.00
9784;BME280;4931;44.874;-1.092;2023-02-18T13:47:01;102641.66;;;20.32;100.00
9784;BME280;4931;44.874;-1.092;2023-02-18T13:49:36;102634.75;;;20.49;100.00
9784;BME280;4931;44.874;-1.092;2023-02-18T13:52:03;102630.59;;;20.46;100.00
9784;BME280;4931;44.874;-1.092;2023-02-18T13:54:46;102632.41;;;20.37;100.00
9784;BME280;4931;44.874;-1.092;2023-02-18T13:57:18;102620.09;;;20.76;100.00
9784;BME280;4931;44.874;-1.092;2023-02-18T13:59:58;102611.53;;;20.72;100.00
9784;BME280;4931;44.874;-1.092;2023-02-18T14:02:32;102613.16;;;20.73;100.00
9784;BME280;4931;44.874;-1.092;2023-02-18T14:12:42;102605.72;;;20.69;100.00
9784;BME280;4931;44.874;-1.092;2023-02-18T14:17:47;102601.91;;;20.07;100.00
9784;BME280;4931;44.874;-1.092;2023-02-18T14:27:32;102592.69;;;19.88;100.00
9784;BME280;4931;44.874;-1.092;2023-02-18T14:30:07;102576.00;;;20.26;100.00
9784;BME280;4931;44.874;-1.092;2023-02-18T14:32:39;102576.97;;;20.35;100.00
9784;BME280;4931;44.874;-1.092;2023-02-18T14:38:41;102578.88;;;19.78;100.00
9784;BME280;4931;44.874;-1.092;2023-02-18T14:41:21;102567.06;;;19.91;100.00
9784;BME280;4931;44.874;-1.092;2023-02-18T14:47:10;102566.50;;;19.89;100.00
9784;BME280;4931;44.874;-1.092;2023-02-18T14:49:43;102562.53;;;19.71;100.00
9784;BME280;4931;44.874;-1.092;2023-02-18T14:54:43;102559.00;;;19.65;100.00
9784;BME280;4931;44.874;-1.092;2023-02-18T14:57:17;102555.78;;;19.34;100.00
9784;BME280;4931;44.874;-1.092;2023-02-18T14:59:46;102560.09;;;19.45;100.00
9784;BME280;4931;44.874;-1.092;2023-02-18T15:02:22;102556.13;;;19.27;100.00
9784;BME280;4931;44.874;-1.092;2023-02-18T15:04:51;102560.13;;;19.64;100.00
9784;BME280;4931;44.874;-1.092;2023-02-18T15:07:19;102553.94;;;19.48;100.00
9784;BME280;4931;44.874;-1.092;2023-02-18T15:09:52;102554.47;;;19.50;100.00
9784;BME280;4931;44.874;-1.092;2023-02-18T15:12:20;102548.66;;;19.47;100.00
9784;BME280;4931;44.874;-1.092;2023-02-18T15:14:49;102541.50;;;19.40;100.00
9784;BME280;4931;44.874;-1.092;2023-02-18T15:17:20;102541.13;;;19.47;100.00
9784;BME280;4931;44.874;-1.092;2023-02-18T15:19:47;102547.50;;;19.53;100.00
9784;BME280;4931;44.874;-1.092;2023-02-18T15:22:17;102540.13;;;19.62;100.00
9784;BME280;4931;44.874;-1.092;2023-02-18T15:24:43;102542.03;;;19.43;100.00
9784;BME280;4931;44.874;-1.092;2023-02-18T15:27:27;102538.50;;;19.13;100.00
9784;BME280;4931;44.874;-1.092;2023-02-18T15:30:19;102535.06;;;19.21;100.00
9784;BME280;4931;44.874;-1.092;2023-02-18T15:32:53;102539.44;;;19.03;100.00
9784;BME280;4931;44.874;-1.092;2023-02-18T15:35:20;102542.09;;;18.89;100.00